createdAt,value
2022-08-16T00:00:56.783Z,6.97
2022-08-16T00:03:23.780Z,7.63
2022-08-16T00:05:57.582Z,6.70
2022-08-16T00:08:35.963Z,6.85
2022-08-16T00:11:15.465Z,6.43
2022-08-16T00:13:53.713Z,6.85
2022-08-16T00:17:01.177Z,7.22
2022-08-16T00:19:09.862Z,7.57
2022-08-16T00:21:41.182Z,7.05
2022-08-16T00:24:11.477Z,7.35
2022-08-16T00:26:45.205Z,6.10
2022-08-16T00:29:16.268Z,6.88
2022-08-16T00:31:59.318Z,6.63
2022-08-16T00:34:43.896Z,6.65
2022-08-16T00:37:16.697Z,5.93
2022-08-16T00:39:44.751Z,5.75
2022-08-16T00:42:11.346Z,6.05
2022-08-16T00:44:39.613Z,6.80
2022-08-16T00:47:10.585Z,6.55
2022-08-16T00:49:39.567Z,6.05
2022-08-16T00:52:29.462Z,6.68
2022-08-16T00:54:56.943Z,6.75
2022-08-16T00:57:23.962Z,6.15
2022-08-16T00:59:52.907Z,6.80
2022-08-16T01:02:31.406Z,6.10
2022-08-16T01:05:09.159Z,6.57
2022-08-16T01:07:51.165Z,6.20
2022-08-16T01:10:21.715Z,7.32
2022-08-16T01:13:01.019Z,7.32
2022-08-16T01:15:27.841Z,6.13
2022-08-16T01:17:57.353Z,5.80
2022-08-16T01:20:30.424Z,6.55
2022-08-16T01:23:58.456Z,5.75
2022-08-16T01:26:34.098Z,6.07
2022-08-16T01:29:09.798Z,6.13
2022-08-16T01:31:37.601Z,5.45
2022-08-16T01:34:09.807Z,5.68
2022-08-16T01:37:01.385Z,6.07
2022-08-16T01:39:29.240Z,6.10
2022-08-16T01:41:55.935Z,5.35
2022-08-16T01:44:22.428Z,5.43
2022-08-16T01:46:49.350Z,5.90
2022-08-16T01:49:43.035Z,5.90
2022-08-16T01:52:29.302Z,5.45
2022-08-16T01:54:57.205Z,5.40
2022-08-16T01:57:24.753Z,5.05
2022-08-16T01:59:54.676Z,4.82
2022-08-16T02:02:27.530Z,5.40
2022-08-16T02:04:55.638Z,5.68
2022-08-16T02:07:23.481Z,5.30
2022-08-16T02:12:50.006Z,4.70
2022-08-16T02:15:14.957Z,5.15
2022-08-16T02:17:42.540Z,4.97
2022-08-16T02:20:11.828Z,4.68
2022-08-16T02:22:38.888Z,4.80
2022-08-16T02:25:10.365Z,4.97
2022-08-16T02:27:38.944Z,4.85
2022-08-16T02:30:37.590Z,4.53
2022-08-16T02:33:03.124Z,4.55
2022-08-16T02:35:29.992Z,4.25
2022-08-16T02:37:56.507Z,4.90
2022-08-16T02:40:28.632Z,5.05
2022-08-16T02:42:55.990Z,4.82
2022-08-16T02:45:27.883Z,4.95
2022-08-16T02:48:01.367Z,5.70
2022-08-16T02:50:55.094Z,4.75
2022-08-16T02:53:29.242Z,4.85
2022-08-16T02:55:56.476Z,4.23
2022-08-16T02:58:24.958Z,4.90
2022-08-16T03:00:56.019Z,4.45
2022-08-16T03:03:23.105Z,4.95
2022-08-16T03:05:52.421Z,4.50
2022-08-16T03:08:50.110Z,5.10
2022-08-16T03:11:16.886Z,4.88
2022-08-16T03:13:51.142Z,4.30
2022-08-16T03:16:37.923Z,5.00
2022-08-16T03:19:05.253Z,4.68
2022-08-16T03:21:37.363Z,5.25
2022-08-16T03:24:05.993Z,4.90
2022-08-16T03:26:52.500Z,4.60
2022-08-16T03:29:19.061Z,4.38
2022-08-16T03:31:45.575Z,4.43
2022-08-16T03:34:19.249Z,4.97
2022-08-16T03:36:47.562Z,4.95
2022-08-16T03:39:15.197Z,4.65
2022-08-16T03:41:50.323Z,4.90
2022-08-16T03:44:43.465Z,4.53
2022-08-16T03:47:03.989Z,4.72
2022-08-16T03:49:36.671Z,4.60
2022-08-16T03:52:04.482Z,4.40
2022-08-16T03:54:31.013Z,4.47
2022-08-16T03:56:58.875Z,4.82
2022-08-16T03:59:29.535Z,4.07
2022-08-16T04:01:56.906Z,4.53
2022-08-16T04:04:32.502Z,5.28
2022-08-16T04:06:59.450Z,4.78
2022-08-16T04:09:26.009Z,5.15
2022-08-16T04:11:52.924Z,4.32
2022-08-16T04:14:32.951Z,4.53
2022-08-16T04:17:00.963Z,4.80
2022-08-16T04:19:31.908Z,4.50
2022-08-16T04:21:58.597Z,4.38
2022-08-16T04:24:28.852Z,4.78
2022-08-16T04:26:55.617Z,4.60
2022-08-16T04:29:24.931Z,4.25
2022-08-16T04:31:56.166Z,4.50
2022-08-16T04:34:26.664Z,5.00
2022-08-16T04:36:53.723Z,4.28
2022-08-16T04:39:23.929Z,4.63
2022-08-16T04:41:56.965Z,4.63
2022-08-16T04:44:32.675Z,4.65
2022-08-16T04:47:23.915Z,4.45
2022-08-16T04:49:52.395Z,4.45
2022-08-16T04:52:33.174Z,5.13
2022-08-16T04:55:11.757Z,5.65
2022-08-16T04:57:39.535Z,5.07
2022-08-16T05:00:30.284Z,4.40
2022-08-16T05:03:02.650Z,5.25
2022-08-16T05:05:44.775Z,4.82
2022-08-16T05:08:29.353Z,4.97
2022-08-16T05:11:05.229Z,4.72
2022-08-16T05:13:40.557Z,4.88
2022-08-16T05:16:30.086Z,4.80
2022-08-16T05:21:26.984Z,4.75
2022-08-16T05:23:55.781Z,5.20
2022-08-16T05:26:27.840Z,5.00
2022-08-16T05:28:56.047Z,5.20
2022-08-16T05:33:53.438Z,5.05
2022-08-16T05:36:21.398Z,4.95
2022-08-16T05:38:48.910Z,5.80
2022-08-16T05:41:16.849Z,5.32
2022-08-16T05:43:46.909Z,5.07
2022-08-16T05:46:29.952Z,5.25
2022-08-16T05:49:03.602Z,5.43
2022-08-16T05:51:38.145Z,5.35
2022-08-16T05:54:06.678Z,5.15
2022-08-16T05:56:36.670Z,5.32
2022-08-16T05:59:06.303Z,5.32
2022-08-16T06:01:38.171Z,4.70
2022-08-16T06:04:13.549Z,5.18
2022-08-16T06:06:56.575Z,5.10
2022-08-16T06:09:24.479Z,4.90
2022-08-16T06:11:51.788Z,5.13
2022-08-16T06:14:18.923Z,4.95
2022-08-16T06:16:50.946Z,4.82
2022-08-16T06:19:17.950Z,4.85
2022-08-16T06:21:44.747Z,4.88
